sensor_id;sensor_type;location;lat;lon;timestamp;temperature;humidity
23405;DHT22;11875;49.356;2.718;2023-03-01T00:01:05;2.90;98.00
23405;DHT22;11875;49.356;2.718;2023-03-01T00:03:31;2.90;98.00
23405;DHT22;11875;49.356;2.718;2023-03-01T00:05:57;2.90;98.00
23405;DHT22;11875;49.356;2.718;2023-03-01T00:08:23;2.90;98.00
23405;DHT22;11875;49.356;2.718;2023-03-01T00:10:48;2.90;98.10
23405;DHT22;11875;49.356;2.718;2023-03-01T00:13:14;2.80;98.10
23405;DHT22;11875;49.356;2.718;2023-03-01T00:15:40;2.80;98.10
23405;DHT22;11875;49.356;2.718;2023-03-01T00:18:09;2.80;98.10
23405;DHT22;11875;49.356;2.718;2023-03-01T00:20:35;2.90;98.10
23405;DHT22;11875;49.356;2.718;2023-03-01T00:23:00;2.80;98.00
23405;DHT22;11875;49.356;2.718;2023-03-01T00:25:26;2.60;98.20
23405;DHT22;11875;49.356;2.718;2023-03-01T00:27:51;2.50;98.30
23405;DHT22;11875;49.356;2.718;2023-03-01T00:30:17;2.50;98.50
23405;DHT22;11875;49.356;2.718;2023-03-01T00:32:43;2.60;98.70
23405;DHT22;11875;49.356;2.718;2023-03-01T00:35:08;2.60;98.50
23405;DHT22;11875;49.356;2.718;2023-03-01T00:37:34;2.80;98.50
23405;DHT22;11875;49.356;2.718;2023-03-01T00:39:59;2.80;98.30
23405;DHT22;11875;49.356;2.718;2023-03-01T00:42:25;2.90;98.20
23405;DHT22;11875;49.356;2.718;2023-03-01T00:44:50;2.90;98.20
23405;DHT22;11875;49.356;2.718;2023-03-01T00:47:16;2.90;98.20
23405;DHT22;11875;49.356;2.718;2023-03-01T00:49:41;2.90;98.20
23405;DHT22;11875;49.356;2.718;2023-03-01T00:52:07;1.80;97.80
23405;DHT22;11875;49.356;2.718;2023-03-01T00:54:33;2.80;98.20
23405;DHT22;11875;49.356;2.718;2023-03-01T00:56:58;2.90;98.30
23405;DHT22;11875;49.356;2.718;2023-03-01T00:59:24;2.90;98.30
23405;DHT22;11875;49.356;2.718;2023-03-01T01:01:49;2.80;98.20
23405;DHT22;11875;49.356;2.718;2023-03-01T01:04:15;2.80;98.40
23405;DHT22;11875;49.356;2.718;2023-03-01T01:06:43;2.80;98.50
23405;DHT22;11875;49.356;2.718;2023-03-01T01:09:11;2.70;98.30
23405;DHT22;11875;49.356;2.718;2023-03-01T01:11:44;2.80;98.50
23405;DHT22;11875;49.356;2.718;2023-03-01T01:14:09;2.70;98.40
23405;DHT22;11875;49.356;2.718;2023-03-01T01:16:35;2.70;98.60
23405;DHT22;11875;49.356;2.718;2023-03-01T01:19:01;2.60;98.40
23405;DHT22;11875;49.356;2.718;2023-03-01T01:21:27;2.50;98.60
23405;DHT22;11875;49.356;2.718;2023-03-01T01:23:53;2.40;98.60
23405;DHT22;11875;49.356;2.718;2023-03-01T01:26:38;2.50;98.90
23405;DHT22;11875;49.356;2.718;2023-03-01T01:29:05;2.60;99.00
23405;DHT22;11875;49.356;2.718;2023-03-01T01:31:32;2.60;98.80
23405;DHT22;11875;49.356;2.718;2023-03-01T01:33:59;2.50;98.90
23405;DHT22;11875;49.356;2.718;2023-03-01T01:36:25;2.50;98.90
23405;DHT22;11875;49.356;2.718;2023-03-01T01:38:51;2.50;99.00
23405;DHT22;11875;49.356;2.718;2023-03-01T01:41:18;2.50;99.00
23405;DHT22;11875;49.356;2.718;2023-03-01T01:43:47;2.60;99.00
23405;DHT22;11875;49.356;2.718;2023-03-01T01:46:31;2.50;98.90
23405;DHT22;11875;49.356;2.718;2023-03-01T01:49:01;2.50;99.00
23405;DHT22;11875;49.356;2.718;2023-03-01T01:51:37;2.50;99.00
23405;DHT22;11875;49.356;2.718;2023-03-01T01:54:10;2.40;99.00
23405;DHT22;11875;49.356;2.718;2023-03-01T01:56:38;2.40;99.20
23405;DHT22;11875;49.356;2.718;2023-03-01T01:59:05;2.50;99.20
23405;DHT22;11875;49.356;2.718;2023-03-01T02:01:31;2.40;99.10
23405;DHT22;11875;49.356;2.718;2023-03-01T02:03:57;2.40;99.20
23405;DHT22;11875;49.356;2.718;2023-03-01T02:06:34;2.50;99.30
23405;DHT22;11875;49.356;2.718;2023-03-01T02:09:07;2.40;99.30
23405;DHT22;11875;49.356;2.718;2023-03-01T02:11:33;2.40;99.30
23405;DHT22;11875;49.356;2.718;2023-03-01T02:13:59;2.30;99.20
23405;DHT22;11875;49.356;2.718;2023-03-01T02:16:25;2.40;99.40
23405;DHT22;11875;49.356;2.718;2023-03-01T02:18:51;2.40;99.40
23405;DHT22;11875;49.356;2.718;2023-03-01T02:23:43;2.30;99.30
23405;DHT22;11875;49.356;2.718;2023-03-01T02:26:19;2.30;99.40
23405;DHT22;11875;49.356;2.718;2023-03-01T02:28:46;2.30;99.40
23405;DHT22;11875;49.356;2.718;2023-03-01T02:31:16;2.30;99.60
23405;DHT22;11875;49.356;2.718;2023-03-01T02:34:00;2.20;99.50
23405;DHT22;11875;49.356;2.718;2023-03-01T02:36:32;2.20;99.70
23405;DHT22;11875;49.356;2.718;2023-03-01T02:39:02;2.20;99.70
23405;DHT22;11875;49.356;2.718;2023-03-01T02:41:31;2.10;99.70
23405;DHT22;11875;49.356;2.718;2023-03-01T02:43:59;2.10;99.70
23405;DHT22;11875;49.356;2.718;2023-03-01T02:46:26;2.10;99.90
23405;DHT22;11875;49.356;2.718;2023-03-01T02:48:54;2.10;99.90
23405;DHT22;11875;49.356;2.718;2023-03-01T02:56:39;1.90;99.90
23405;DHT22;11875;49.356;2.718;2023-03-01T02:59:04;1.90;99.90
23405;DHT22;11875;49.356;2.718;2023-03-01T03:01:30;1.80;99.90
23405;DHT22;11875;49.356;2.718;2023-03-01T03:04:13;1.90;99.90
23405;DHT22;11875;49.356;2.718;2023-03-01T03:06:43;1.90;99.90
23405;DHT22;11875;49.356;2.718;2023-03-01T03:09:09;2.00;99.90
23405;DHT22;11875;49.356;2.718;2023-03-01T03:11:35;1.90;99.90
23405;DHT22;11875;49.356;2.718;2023-03-01T03:14:02;1.90;99.90
23405;DHT22;11875;49.356;2.718;2023-03-01T03:16:27;1.90;99.90
23405;DHT22;11875;49.356;2.718;2023-03-01T03:18:55;2.00;99.90
23405;DHT22;11875;49.356;2.718;2023-03-01T03:21:31;1.90;99.90
23405;DHT22;11875;49.356;2.718;2023-03-01T03:23:56;1.80;99.90
23405;DHT22;11875;49.356;2.718;2023-03-01T03:26:23;1.70;99.90
23405;DHT22;11875;49.356;2.718;2023-03-01T03:28:48;1.70;99.90
23405;DHT22;11875;49.356;2.718;2023-03-01T03:31:14;1.70;99.90
23405;DHT22;11875;49.356;2.718;2023-03-01T03:33:39;1.70;99.90
23405;DHT22;11875;49.356;2.718;2023-03-01T03:36:05;1.60;99.90
23405;DHT22;11875;49.356;2.718;2023-03-01T03:38:31;1.60;99.90
23405;DHT22;11875;49.356;2.718;2023-03-01T03:41:04;1.70;99.90
23405;DHT22;11875;49.356;2.718;2023-03-01T03:43:32;1.70;99.90
23405;DHT22;11875;49.356;2.718;2023-03-01T03:45:58;1.70;99.90
23405;DHT22;11875;49.356;2.718;2023-03-01T03:48:24;1.70;99.90
23405;DHT22;11875;49.356;2.718;2023-03-01T03:50:52;1.70;99.90
23405;DHT22;11875;49.356;2.718;2023-03-01T03:53:19;1.70;99.90
23405;DHT22;11875;49.356;2.718;2023-03-01T03:55:45;1.70;99.90
23405;DHT22;11875;49.356;2.718;2023-03-01T03:58:15;1.70;99.90
23405;DHT22;11875;49.356;2.718;2023-03-01T04:00:43;1.80;99.90
23405;DHT22;11875;49.356;2.718;2023-03-01T04:03:10;1.90;99.90
23405;DHT22;11875;49.356;2.718;2023-03-01T04:05:37;1.90;99.90
23405;DHT22;11875;49.356;2.718;2023-03-01T04:08:04;1.80;99.90
23405;DHT22;11875;49.356;2.718;2023-03-01T04:10:45;1.80;99.90
23405;DHT22;11875;49.356;2.718;2023-03-01T04:13:15;1.90;99.90
23405;DHT22;11875;49.356;2.718;2023-03-01T04:15:41;1.80;99.90
23405;DHT22;11875;49.356;2.718;2023-03-01T04:18:10;1.80;99.90
23405;DHT22;11875;49.356;2.718;2023-03-01T04:20:37;1.80;99.90
23405;DHT22;11875;49.356;2.718;2023-03-01T04:23:04;1.80;99.90
23405;DHT22;11875;49.356;2.718;2023-03-01T04:26:02;1.70;99.90
23405;DHT22;11875;49.356;2.718;2023-03-01T04:28:29;1.70;99.90
23405;DHT22;11875;49.356;2.718;2023-03-01T04:30:57;1.70;99.90
23405;DHT22;11875;49.356;2.718;2023-03-01T04:33:24;1.70;99.90
23405;DHT22;11875;49.356;2.718;2023-03-01T04:35:50;1.70;99.90
23405;DHT22;11875;49.356;2.718;2023-03-01T04:38:17;1.70;99.90
23405;DHT22;11875;49.356;2.718;2023-03-01T04:40:43;1.80;99.90
23405;DHT22;11875;49.356;2.718;2023-03-01T04:43:10;1.70;99.90
23405;DHT22;11875;49.356;2.718;2023-03-01T04:45:36;1.60;99.90
23405;DHT22;11875;49.356;2.718;2023-03-01T04:48:03;1.60;99.90
23405;DHT22;11875;49.356;2.718;2023-03-01T04:50:28;1.50;99.90
23405;DHT22;11875;49.356;2.718;2023-03-01T04:52:54;1.60;99.90
23405;DHT22;11875;49.356;2.718;2023-03-01T04:55:27;1.60;99.90
23405;DHT22;11875;49.356;2.718;2023-03-01T04:57:52;1.60;99.90
23405;DHT22;11875;49.356;2.718;2023-03-01T05:00:19;1.50;99.90
23405;DHT22;11875;49.356;2.718;2023-03-01T05:02:50;1.60;99.90
23405;DHT22;11875;49.356;2.718;2023-03-01T05:05:19;1.50;99.90
23405;DHT22;11875;49.356;2.718;2023-03-01T05:07:45;1.50;99.90
23405;DHT22;11875;49.356;2.718;2023-03-01T05:10:11;1.50;99.90
23405;DHT22;11875;49.356;2.718;2023-03-01T05:12:37;1.50;99.90
23405;DHT22;11875;49.356;2.718;2023-03-01T05:15:03;1.50;99.90
23405;DHT22;11875;49.356;2.718;2023-03-01T05:17:33;1.50;99.90
23405;DHT22;11875;49.356;2.718;2023-03-01T05:19:59;1.50;99.90
23405;DHT22;11875;49.356;2.718;2023-03-01T05:22:25;1.50;99.90
23405;DHT22;11875;49.356;2.718;2023-03-01T05:24:50;1.50;99.90
23405;DHT22;11875;49.356;2.718;2023-03-01T05:27:16;1.40;99.90
23405;DHT22;11875;49.356;2.718;2023-03-01T05:29:42;1.40;99.90
23405;DHT22;11875;49.356;2.718;2023-03-01T05:32:07;1.40;99.90
23405;DHT22;11875;49.356;2.718;2023-03-01T05:34:35;1.40;99.90
23405;DHT22;11875;49.356;2.718;2023-03-01T05:37:01;1.20;99.90
23405;DHT22;11875;49.356;2.718;2023-03-01T05:39:29;1.20;99.90
23405;DHT22;11875;49.356;2.718;2023-03-01T05:41:59;1.20;99.90
23405;DHT22;11875;49.356;2.718;2023-03-01T05:44:25;1.20;99.90
23405;DHT22;11875;49.356;2.718;2023-03-01T05:46:51;1.20;99.90
23405;DHT22;11875;49.356;2.718;2023-03-01T05:49:18;1.20;99.90
23405;DHT22;11875;49.356;2.718;2023-03-01T05:51:48;1.20;99.90
23405;DHT22;11875;49.356;2.718;2023-03-01T05:54:15;1.30;99.90
23405;DHT22;11875;49.356;2.718;2023-03-01T05:56:41;1.20;99.90
23405;DHT22;11875;49.356;2.718;2023-03-01T05:59:07;1.20;99.90
23405;DHT22;11875;49.356;2.718;2023-03-01T06:01:33;1.20;99.90
23405;DHT22;11875;49.356;2.718;2023-03-01T06:03:59;1.10;99.90
23405;DHT22;11875;49.356;2.718;2023-03-01T06:06:25;1.10;99.90
23405;DHT22;11875;49.356;2.718;2023-03-01T06:08:52;1.30;99.90
23405;DHT22;11875;49.356;2.718;2023-03-01T06:11:18;1.10;99.90
23405;DHT22;11875;49.356;2.718;2023-03-01T06:13:44;1.20;99.90
23405;DHT22;11875;49.356;2.718;2023-03-01T06:16:10;1.10;99.90
23405;DHT22;11875;49.356;2.718;2023-03-01T06:18:37;1.20;99.90
23405;DHT22;11875;49.356;2.718;2023-03-01T06:21:03;1.10;99.90
23405;DHT22;11875;49.356;2.718;2023-03-01T06:23:29;1.10;99.90
23405;DHT22;11875;49.356;2.718;2023-03-01T06:25:55;1.20;99.90
23405;DHT22;11875;49.356;2.718;2023-03-01T06:28:20;1.20;99.90
23405;DHT22;11875;49.356;2.718;2023-03-01T06:30:46;1.20;99.90
23405;DHT22;11875;49.356;2.718;2023-03-01T06:33:12;1.20;99.90
23405;DHT22;11875;49.356;2.718;2023-03-01T06:35:38;1.20;99.90
23405;DHT22;11875;49.356;2.718;2023-03-01T06:38:05;1.20;99.90
23405;DHT22;11875;49.356;2.718;2023-03-01T06:40:31;1.20;99.90
23405;DHT22;11875;49.356;2.718;2023-03-01T06:42:58;1.20;99.90
23405;DHT22;11875;49.356;2.718;2023-03-01T06:45:24;1.20;99.90
23405;DHT22;11875;49.356;2.718;2023-03-01T06:47:50;1.10;99.90
23405;DHT22;11875;49.356;2.718;2023-03-01T06:50:17;1.10;99.90
23405;DHT22;11875;49.356;2.718;2023-03-01T06:52:43;1.10;99.90
23405;DHT22;11875;49.356;2.718;2023-03-01T06:55:11;1.10;99.90
23405;DHT22;11875;49.356;2.718;2023-03-01T06:57:37;1.00;99.90
23405;DHT22;11875;49.356;2.718;2023-03-01T07:00:06;1.00;99.90
23405;DHT22;11875;49.356;2.718;2023-03-01T07:02:32;1.00;99.90
23405;DHT22;11875;49.356;2.718;2023-03-01T07:04:57;1.10;99.90
23405;DHT22;11875;49.356;2.718;2023-03-01T07:07:23;1.10;99.90
23405;DHT22;11875;49.356;2.718;2023-03-01T07:09:49;1.10;99.90
23405;DHT22;11875;49.356;2.718;2023-03-01T07:12:15;2.20;99.90
23405;DHT22;11875;49.356;2.718;2023-03-01T07:14:41;1.00;99.90
23405;DHT22;11875;49.356;2.718;2023-03-01T07:17:08;1.00;99.90
23405;DHT22;11875;49.356;2.718;2023-03-01T07:19:34;1.00;99.90
23405;DHT22;11875;49.356;2.718;2023-03-01T07:21:59;1.10;99.90
23405;DHT22;11875;49.356;2.718;2023-03-01T07:24:25;1.10;99.90
23405;DHT22;11875;49.356;2.718;2023-03-01T07:26:51;1.10;99.90
23405;DHT22;11875;49.356;2.718;2023-03-01T07:29:17;1.10;99.90
23405;DHT22;11875;49.356;2.718;2023-03-01T07:31:44;1.10;99.90
23405;DHT22;11875;49.356;2.718;2023-03-01T07:34:10;1.10;99.90
23405;DHT22;11875;49.356;2.718;2023-03-01T07:36:36;1.00;99.90
23405;DHT22;11875;49.356;2.718;2023-03-01T07:39:02;1.00;99.90
23405;DHT22;11875;49.356;2.718;2023-03-01T07:41:29;1.10;99.90
23405;DHT22;11875;49.356;2.718;2023-03-01T07:43:54;1.20;99.90
23405;DHT22;11875;49.356;2.718;2023-03-01T07:46:20;1.30;99.90
23405;DHT22;11875;49.356;2.718;2023-03-01T07:48:46;1.30;99.90
23405;DHT22;11875;49.356;2.718;2023-03-01T07:51:12;1.30;99.90
23405;DHT22;11875;49.356;2.718;2023-03-01T07:53:37;1.40;99.90
23405;DHT22;11875;49.356;2.718;2023-03-01T07:56:09;1.40;99.90
23405;DHT22;11875;49.356;2.718;2023-03-01T07:58:36;1.40;99.90
23405;DHT22;11875;49.356;2.718;2023-03-01T08:01:03;1.50;99.90
23405;DHT22;11875;49.356;2.718;2023-03-01T08:03:29;1.70;99.90
23405;DHT22;11875;49.356;2.718;2023-03-01T08:05:55;2.10;99.90
23405;DHT22;11875;49.356;2.718;2023-03-01T08:08:21;2.50;99.90
23405;DHT22;11875;49.356;2.718;2023-03-01T08:10:46;3.00;99.90
23405;DHT22;11875;49.356;2.718;2023-03-01T08:13:12;3.40;99.90
23405;DHT22;11875;49.356;2.718;2023-03-01T08:15:37;3.70;99.90
23405;DHT22;11875;49.356;2.718;2023-03-01T08:18:03;4.10;99.90
23405;DHT22;11875;49.356;2.718;2023-03-01T08:20:28;4.30;99.90
23405;DHT22;11875;49.356;2.718;2023-03-01T08:22:54;4.60;99.90
23405;DHT22;11875;49.356;2.718;2023-03-01T08:25:20;4.70;99.90
23405;DHT22;11875;49.356;2.718;2023-03-01T08:27:45;4.90;99.90
23405;DHT22;11875;49.356;2.718;2023-03-01T08:30:11;5.00;99.90
23405;DHT22;11875;49.356;2.718;2023-03-01T08:32:38;5.20;99.90
23405;DHT22;11875;49.356;2.718;2023-03-01T08:35:04;5.30;99.90
23405;DHT22;11875;49.356;2.718;2023-03-01T08:37:30;5.30;99.90
23405;DHT22;11875;49.356;2.718;2023-03-01T08:39:59;5.40;99.90
23405;DHT22;11875;49.356;2.718;2023-03-01T08:42:25;5.40;99.90
23405;DHT22;11875;49.356;2.718;2023-03-01T08:44:51;5.40;99.90
23405;DHT22;11875;49.356;2.718;2023-03-01T08:47:16;5.50;99.90
23405;DHT22;11875;49.356;2.718;2023-03-01T08:49:42;5.60;99.90
23405;DHT22;11875;49.356;2.718;2023-03-01T08:52:08;5.70;99.90
23405;DHT22;11875;49.356;2.718;2023-03-01T08:54:33;5.60;99.90
23405;DHT22;11875;49.356;2.718;2023-03-01T08:57:02;5.50;99.90
23405;DHT22;11875;49.356;2.718;2023-03-01T08:59:27;5.50;99.90
23405;DHT22;11875;49.356;2.718;2023-03-01T09:01:55;5.50;99.90
23405;DHT22;11875;49.356;2.718;2023-03-01T09:04:21;5.50;99.90
23405;DHT22;11875;49.356;2.718;2023-03-01T09:06:47;5.40;99.90
23405;DHT22;11875;49.356;2.718;2023-03-01T09:09:15;5.30;99.90
23405;DHT22;11875;49.356;2.718;2023-03-01T09:11:43;5.20;99.90
23405;DHT22;11875;49.356;2.718;2023-03-01T09:14:12;5.10;99.90
23405;DHT22;11875;49.356;2.718;2023-03-01T09:16:37;5.20;99.90
23405;DHT22;11875;49.356;2.718;2023-03-01T09:19:04;5.20;99.90
23405;DHT22;11875;49.356;2.718;2023-03-01T09:21:29;5.10;99.90
23405;DHT22;11875;49.356;2.718;2023-03-01T09:23:56;5.10;99.90
23405;DHT22;11875;49.356;2.718;2023-03-01T09:26:23;5.20;99.90
23405;DHT22;11875;49.356;2.718;2023-03-01T09:28:50;5.10;99.90
23405;DHT22;11875;49.356;2.718;2023-03-01T09:31:17;5.10;99.90
23405;DHT22;11875;49.356;2.718;2023-03-01T09:33:46;5.10;99.90
23405;DHT22;11875;49.356;2.718;2023-03-01T09:36:16;5.00;99.80
23405;DHT22;11875;49.356;2.718;2023-03-01T09:38:42;5.00;99.90
23405;DHT22;11875;49.356;2.718;2023-03-01T09:41:43;5.10;99.80
23405;DHT22;11875;49.356;2.718;2023-03-01T09:46:50;5.00;99.80
23405;DHT22;11875;49.356;2.718;2023-03-01T09:49:23;5.00;99.90
23405;DHT22;11875;49.356;2.718;2023-03-01T09:54:44;5.50;99.70
23405;DHT22;11875;49.356;2.718;2023-03-01T09:57:20;5.40;99.30
23405;DHT22;11875;49.356;2.718;2023-03-01T10:00:31;5.50;99.30
23405;DHT22;11875;49.356;2.718;2023-03-01T10:11:20;5.60;98.80
23405;DHT22;11875;49.356;2.718;2023-03-01T10:16:55;5.40;99.10
23405;DHT22;11875;49.356;2.718;2023-03-01T10:19:31;5.30;99.60
23405;DHT22;11875;49.356;2.718;2023-03-01T10:22:03;5.60;99.60
23405;DHT22;11875;49.356;2.718;2023-03-01T10:24:34;5.80;99.20
23405;DHT22;11875;49.356;2.718;2023-03-01T10:27:14;5.40;99.10
23405;DHT22;11875;49.356;2.718;2023-03-01T10:30:00;5.40;99.40
23405;DHT22;11875;49.356;2.718;2023-03-01T10:32:28;5.50;99.50
23405;DHT22;11875;49.356;2.718;2023-03-01T10:34:54;5.70;99.80
23405;DHT22;11875;49.356;2.718;2023-03-01T10:37:21;5.80;99.60
23405;DHT22;11875;49.356;2.718;2023-03-01T10:40:03;5.80;99.40
23405;DHT22;11875;49.356;2.718;2023-03-01T10:42:48;6.00;99.40
23405;DHT22;11875;49.356;2.718;2023-03-01T10:48:24;6.10;99.30
23405;DHT22;11875;49.356;2.718;2023-03-01T10:51:14;6.20;99.10
23405;DHT22;11875;49.356;2.718;2023-03-01T10:53:57;5.50;98.80
23405;DHT22;11875;49.356;2.718;2023-03-01T10:56:22;6.30;99.30
23405;DHT22;11875;49.356;2.718;2023-03-01T10:58:59;6.40;99.00
23405;DHT22;11875;49.356;2.718;2023-03-01T11:01:28;6.40;99.10
23405;DHT22;11875;49.356;2.718;2023-03-01T11:06:37;6.60;98.90
23405;DHT22;11875;49.356;2.718;2023-03-01T11:09:19;6.60;98.80
23405;DHT22;11875;49.356;2.718;2023-03-01T11:11:46;6.50;98.80
23405;DHT22;11875;49.356;2.718;2023-03-01T11:14:21;6.50;98.70
23405;DHT22;11875;49.356;2.718;2023-03-01T11:16:49;6.60;98.80
23405;DHT22;11875;49.356;2.718;2023-03-01T11:19:23;6.50;98.70
23405;DHT22;11875;49.356;2.718;2023-03-01T11:22:06;6.60;98.90
23405;DHT22;11875;49.356;2.718;2023-03-01T11:24:47;7.50;98.80
23405;DHT22;11875;49.356;2.718;2023-03-01T11:29:48;6.60;98.60
23405;DHT22;11875;49.356;2.718;2023-03-01T11:32:17;6.70;98.60
23405;DHT22;11875;49.356;2.718;2023-03-01T11:34:55;6.80;98.60
23405;DHT22;11875;49.356;2.718;2023-03-01T11:37:38;6.80;98.50
23405;DHT22;11875;49.356;2.718;2023-03-01T11:40:10;6.80;98.20
23405;DHT22;11875;49.356;2.718;2023-03-01T11:42:48;6.90;98.30
23405;DHT22;11875;49.356;2.718;2023-03-01T11:45:15;7.00;98.10
23405;DHT22;11875;49.356;2.718;2023-03-01T11:56:04;7.30;97.90
23405;DHT22;11875;49.356;2.718;2023-03-01T12:01:06;7.40;97.80
23405;DHT22;11875;49.356;2.718;2023-03-01T12:09:06;7.60;98.30
23405;DHT22;11875;49.356;2.718;2023-03-01T12:11:53;7.60;97.90
23405;DHT22;11875;49.356;2.718;2023-03-01T12:22:34;7.50;97.70
23405;DHT22;11875;49.356;2.718;2023-03-01T12:25:34;7.70;97.90
23405;DHT22;11875;49.356;2.718;2023-03-01T12:28:04;7.70;97.60
23405;DHT22;11875;49.356;2.718;2023-03-01T12:33:45;8.00;97.70
23405;DHT22;11875;49.356;2.718;2023-03-01T12:37:18;8.20;97.50
23405;DHT22;11875;49.356;2.718;2023-03-01T12:42:24;8.00;97.20
23405;DHT22;11875;49.356;2.718;2023-03-01T12:45:04;8.20;97.00
23405;DHT22;11875;49.356;2.718;2023-03-01T12:50:23;8.30;96.80
23405;DHT22;11875;49.356;2.718;2023-03-01T12:52:53;8.30;97.10
23405;DHT22;11875;49.356;2.718;2023-03-01T12:55:33;8.50;96.90
23405;DHT22;11875;49.356;2.718;2023-03-01T12:58:23;8.50;96.50
23405;DHT22;11875;49.356;2.718;2023-03-01T13:04:35;8.30;96.70
23405;DHT22;11875;49.356;2.718;2023-03-01T13:10:19;8.30;96.90
23405;DHT22;11875;49.356;2.718;2023-03-01T13:12:48;8.30;97.10
23405;DHT22;11875;49.356;2.718;2023-03-01T13:15:35;8.50;97.30
23405;DHT22;11875;49.356;2.718;2023-03-01T13:20:33;8.80;96.90
23405;DHT22;11875;49.356;2.718;2023-03-01T13:23:13;8.80;96.40
23405;DHT22;11875;49.356;2.718;2023-03-01T13:31:11;9.00;96.50
23405;DHT22;11875;49.356;2.718;2023-03-01T13:34:00;9.00;96.40
23405;DHT22;11875;49.356;2.718;2023-03-01T13:38:57;9.00;96.20
23405;DHT22;11875;49.356;2.718;2023-03-01T13:46:40;8.90;97.00
23405;DHT22;11875;49.356;2.718;2023-03-01T13:49:13;8.90;96.70
23405;DHT22;11875;49.356;2.718;2023-03-01T13:51:39;9.00;96.40
23405;DHT22;11875;49.356;2.718;2023-03-01T13:54:09;9.00;96.60
23405;DHT22;11875;49.356;2.718;2023-03-01T13:56:37;9.00;96.70
23405;DHT22;11875;49.356;2.718;2023-03-01T13:59:12;9.00;96.90
23405;DHT22;11875;49.356;2.718;2023-03-01T14:01:38;8.80;96.70
23405;DHT22;11875;49.356;2.718;2023-03-01T14:04:21;8.70;97.00
23405;DHT22;11875;49.356;2.718;2023-03-01T14:06:47;8.80;96.60
23405;DHT22;11875;49.356;2.718;2023-03-01T14:09:23;8.90;96.60
23405;DHT22;11875;49.356;2.718;2023-03-01T14:12:05;9.00;96.60
23405;DHT22;11875;49.356;2.718;2023-03-01T14:14:34;9.00;96.60
23405;DHT22;11875;49.356;2.718;2023-03-01T14:19:35;9.00;96.70
23405;DHT22;11875;49.356;2.718;2023-03-01T14:24:35;9.10;96.30
23405;DHT22;11875;49.356;2.718;2023-03-01T14:27:03;9.10;96.40
23405;DHT22;11875;49.356;2.718;2023-03-01T14:29:36;9.00;96.50
23405;DHT22;11875;49.356;2.718;2023-03-01T14:32:19;9.00;96.50
23405;DHT22;11875;49.356;2.718;2023-03-01T14:34:47;9.10;96.30
23405;DHT22;11875;49.356;2.718;2023-03-01T14:37:30;9.00;96.50
23405;DHT22;11875;49.356;2.718;2023-03-01T14:39:58;8.90;96.20
23405;DHT22;11875;49.356;2.718;2023-03-01T14:42:27;8.80;96.30
23405;DHT22;11875;49.356;2.718;2023-03-01T14:44:54;8.90;96.60
23405;DHT22;11875;49.356;2.718;2023-03-01T14:47:30;9.00;96.40
23405;DHT22;11875;49.356;2.718;2023-03-01T14:52:38;8.90;95.90
23405;DHT22;11875;49.356;2.718;2023-03-01T14:55:20;8.90;96.00
23405;DHT22;11875;49.356;2.718;2023-03-01T14:57:49;8.90;96.20
23405;DHT22;11875;49.356;2.718;2023-03-01T15:00:24;8.90;96.40
23405;DHT22;11875;49.356;2.718;2023-03-01T15:02:52;8.90;96.30
23405;DHT22;11875;49.356;2.718;2023-03-01T15:05:39;8.90;96.10
23405;DHT22;11875;49.356;2.718;2023-03-01T15:08:05;8.90;95.80
23405;DHT22;11875;49.356;2.718;2023-03-01T15:10:34;8.80;95.80
23405;DHT22;11875;49.356;2.718;2023-03-01T15:13:19;8.70;95.80
23405;DHT22;11875;49.356;2.718;2023-03-01T15:15:47;8.60;95.40
23405;DHT22;11875;49.356;2.718;2023-03-01T15:18:25;8.40;95.70
23405;DHT22;11875;49.356;2.718;2023-03-01T15:20:52;8.20;96.00
23405;DHT22;11875;49.356;2.718;2023-03-01T15:23:28;8.30;96.00
23405;DHT22;11875;49.356;2.718;2023-03-01T15:25:55;8.40;95.80
23405;DHT22;11875;49.356;2.718;2023-03-01T15:28:33;8.20;96.00
23405;DHT22;11875;49.356;2.718;2023-03-01T15:31:23;8.20;96.40
23405;DHT22;11875;49.356;2.718;2023-03-01T15:33:50;8.20;96.40
23405;DHT22;11875;49.356;2.718;2023-03-01T15:36:36;8.40;96.20
23405;DHT22;11875;49.356;2.718;2023-03-01T15:39:04;8.50;96.30
23405;DHT22;11875;49.356;2.718;2023-03-01T15:41:47;8.60;95.90
23405;DHT22;11875;49.356;2.718;2023-03-01T15:44:25;8.60;95.60
23405;DHT22;11875;49.356;2.718;2023-03-01T15:46:51;8.40;96.00
23405;DHT22;11875;49.356;2.718;2023-03-01T15:49:41;8.30;95.90
23405;DHT22;11875;49.356;2.718;2023-03-01T15:53:03;8.20;95.80
23405;DHT22;11875;49.356;2.718;2023-03-01T15:57:41;8.00;96.00
23405;DHT22;11875;49.356;2.718;2023-03-01T16:00:10;8.10;95.60
23405;DHT22;11875;49.356;2.718;2023-03-01T16:02:39;8.20;95.30
23405;DHT22;11875;49.356;2.718;2023-03-01T16:05:05;8.10;95.10
23405;DHT22;11875;49.356;2.718;2023-03-01T16:07:31;8.20;94.70
23405;DHT22;11875;49.356;2.718;2023-03-01T16:09:57;8.00;94.50
23405;DHT22;11875;49.356;2.718;2023-03-01T16:12:23;8.00;94.40
23405;DHT22;11875;49.356;2.718;2023-03-01T16:14:50;8.00;94.40
23405;DHT22;11875;49.356;2.718;2023-03-01T16:17:15;8.00;94.20
23405;DHT22;11875;49.356;2.718;2023-03-01T16:19:41;8.10;94.10
23405;DHT22;11875;49.356;2.718;2023-03-01T16:22:08;8.00;94.30
23405;DHT22;11875;49.356;2.718;2023-03-01T16:24:35;7.90;94.20
23405;DHT22;11875;49.356;2.718;2023-03-01T16:27:01;8.00;94.40
23405;DHT22;11875;49.356;2.718;2023-03-01T16:29:27;8.00;94.50
23405;DHT22;11875;49.356;2.718;2023-03-01T16:31:54;8.10;94.40
23405;DHT22;11875;49.356;2.718;2023-03-01T16:34:20;8.10;94.50
23405;DHT22;11875;49.356;2.718;2023-03-01T16:36:47;8.10;94.20
23405;DHT22;11875;49.356;2.718;2023-03-01T16:39:12;8.00;94.60
23405;DHT22;11875;49.356;2.718;2023-03-01T16:41:38;8.00;94.80
23405;DHT22;11875;49.356;2.718;2023-03-01T16:44:04;8.00;94.80
23405;DHT22;11875;49.356;2.718;2023-03-01T16:46:29;7.90;94.80
23405;DHT22;11875;49.356;2.718;2023-03-01T16:48:56;7.90;94.90
23405;DHT22;11875;49.356;2.718;2023-03-01T16:51:22;7.90;95.10
23405;DHT22;11875;49.356;2.718;2023-03-01T16:53:49;7.80;95.00
23405;DHT22;11875;49.356;2.718;2023-03-01T16:56:16;7.80;95.00
23405;DHT22;11875;49.356;2.718;2023-03-01T16:58:41;7.70;95.00
23405;DHT22;11875;49.356;2.718;2023-03-01T17:01:13;7.90;95.20
23405;DHT22;11875;49.356;2.718;2023-03-01T17:03:39;7.70;95.10
23405;DHT22;11875;49.356;2.718;2023-03-01T17:06:08;7.70;95.10
23405;DHT22;11875;49.356;2.718;2023-03-01T17:08:34;7.60;95.10
23405;DHT22;11875;49.356;2.718;2023-03-01T17:11:11;8.20;95.30
23405;DHT22;11875;49.356;2.718;2023-03-01T17:13:37;7.50;95.00
23405;DHT22;11875;49.356;2.718;2023-03-01T17:16:05;7.50;95.20
23405;DHT22;11875;49.356;2.718;2023-03-01T17:18:31;7.40;95.20
23405;DHT22;11875;49.356;2.718;2023-03-01T17:20:57;7.30;95.20
23405;DHT22;11875;49.356;2.718;2023-03-01T17:23:24;7.30;95.30
23405;DHT22;11875;49.356;2.718;2023-03-01T17:25:49;7.30;95.30
23405;DHT22;11875;49.356;2.718;2023-03-01T17:28:16;7.40;95.30
23405;DHT22;11875;49.356;2.718;2023-03-01T17:30:43;7.40;95.10
23405;DHT22;11875;49.356;2.718;2023-03-01T17:33:10;7.40;95.20
23405;DHT22;11875;49.356;2.718;2023-03-01T17:35:36;7.30;95.20
23405;DHT22;11875;49.356;2.718;2023-03-01T17:38:03;7.30;95.30